Terminal Aerodrome Forecast
Issued by NWS

Home | Current Version | Previous Version | Text Only | Print | Product List | Glossary On
Versions: 1 2 3 4 5 6 7 8 9 10 11 12 13 14 15 16 17 18 19 20 21 22 23 24 25 26 27 28 29 30 31 32 33 34 35 36 37
000
FTUS41 KBUF 210300 AAA
TAFJHW
TAF AMD
KJHW 210336Z 2104/2124 19014G20KT P6SM SCT025 BKN060
     FM210700 20014KT P6SM VCSH BKN015
     FM210900 20012G18KT 6SM -SHRA OVC015
     FM211000 20012KT 6SM -SHRA OVC007
     FM211600 25010KT 6SM -SHRA OVC015
      AMD LTD TO CLD VIS AND WIND=

USA.gov is the U.S. government's official web portal to all federal, state and local government web resources and services.